Test XHTML 1.0 Strict Page for WU-History Testing
Station Historical Data
 
Daily Summary for August 31, 2015 Units:  Both    English   Metric
« Previous Day
Next Day »
Daily Weekly Monthly Yearly Custom
  Current: High: Low: Average:
Temperature: 55.4 °F /  13 °C 59.9 °F /  15.5 °C 55.0 °F /  12.8 °C 56.7 °F /  13.7 °C
Dew Point: 55.4 °F /  13 °C 59.9 °F /  15.5 °C 55.0 °F /  12.8 °C 56.7 °F /  13.7 °C
Humidity: 100% 100% 100% 100%
Wind Speed: 0.0mph /  0km/h 5.0mph /  8km/h - 0.3mph /  0.5km/h
Wind Gust: 0.0mph /  0km/h 5.0mph /  8km/h - -
WindCalm - - South
Pressure: 30.05 in /  1017.5 hPa 30.08 in /  1018.5 hPa 30.00 in /  1015.8 hPa -
Precipitation: 0.61 in /  15.49 mm      
Historical Graphs
 
 
Weather-Above Climate History
Untitled
Tabular Data for August 31, 2015
Time Temperature Dew Point Pressure Wind Wind Speed Wind Gust Humidity Rainfall Rate (Hourly)
00:03 55.8 °F /  13.2 °C 55.8 °F /  13.2 °C 30.08in /  1018.5hPa Calm     100% 0.00in /  0cm
00:08 55.8 °F /  13.2 °C 55.8 °F /  13.2 °C 30.08in /  1018.5hPa Calm     100% 0.00in /  0cm
00:13 55.8 °F /  13.2 °C 55.8 °F /  13.2 °C 30.08in /  1018.5hPa Calm     100% 0.00in /  0cm
00:18 55.9 °F /  13.3 °C 55.9 °F /  13.3 °C 30.08in /  1018.5hPa Calm     100% 0.01in /  0.25cm
00:23 55.9 °F /  13.3 °C 55.9 °F /  13.3 °C 30.07in /  1018.2hPa Calm     100% 0.01in /  0.25cm
00:28 55.9 °F /  13.3 °C 55.9 °F /  13.3 °C 30.07in /  1018.2hPa Calm     100% 0.01in /  0.25cm
00:33 55.9 °F /  13.3 °C 55.9 °F /  13.3 °C 30.07in /  1018.2hPa Calm     100% 0.01in /  0.25cm
00:38 55.9 °F /  13.3 °C 55.9 °F /  13.3 °C 30.07in /  1018.2hPa Calm     100% 0.01in /  0.25cm
00:43 55.8 °F /  13.2 °C 55.8 °F /  13.2 °C 30.07in /  1018.2hPa Calm     100% 0.02in /  0.51cm
00:48 55.8 °F /  13.2 °C 55.8 °F /  13.2 °C 30.06in /  1017.8hPa Calm     100% 0.02in /  0.51cm
00:53 55.8 °F /  13.2 °C 55.8 °F /  13.2 °C 30.06in /  1017.8hPa Calm     100% 0.02in /  0.51cm
00:58 55.8 °F /  13.2 °C 55.8 °F /  13.2 °C 30.06in /  1017.8hPa Calm     100% 0.02in /  0.51cm
01:03 55.8 °F /  13.2 °C 55.8 °F /  13.2 °C 30.06in /  1017.8hPa Calm     100% 0.02in /  0.51cm
01:08 55.8 °F /  13.2 °C 55.8 °F /  13.2 °C 30.06in /  1017.8hPa Calm     100% 0.02in /  0.51cm
01:13 55.8 °F /  13.2 °C 55.8 °F /  13.2 °C 30.06in /  1017.8hPa Calm     100% 0.02in /  0.51cm
01:18 55.8 °F /  13.2 °C 55.8 °F /  13.2 °C 30.06in /  1017.8hPa Calm     100% 0.01in /  0.25cm
01:23 55.8 °F /  13.2 °C 55.8 °F /  13.2 °C 30.06in /  1017.8hPa Calm     100% 0.02in /  0.51cm
01:28 55.8 °F /  13.2 °C 55.8 °F /  13.2 °C 30.06in /  1017.8hPa Calm     100% 0.02in /  0.51cm
01:33 55.8 °F /  13.2 °C 55.8 °F /  13.2 °C 30.06in /  1017.8hPa Calm     100% 0.02in /  0.51cm
01:38 55.8 °F /  13.2 °C 55.8 °F /  13.2 °C 30.06in /  1017.8hPa Calm     100% 0.02in /  0.51cm
01:43 55.8 °F /  13.2 °C 55.8 °F /  13.2 °C 30.07in /  1018.2hPa Calm     100% 0.02in /  0.51cm
01:48 55.9 °F /  13.3 °C 55.9 °F /  13.3 °C 30.07in /  1018.2hPa Calm     100% 0.02in /  0.51cm
01:53 55.9 °F /  13.3 °C 55.9 °F /  13.3 °C 30.07in /  1018.2hPa Calm     100% 0.02in /  0.51cm
01:58 55.9 °F /  13.3 °C 55.9 °F /  13.3 °C 30.07in /  1018.2hPa Calm     100% 0.03in /  0.76cm
02:03 55.9 °F /  13.3 °C 55.9 °F /  13.3 °C 30.07in /  1018.2hPa Calm     100% 0.03in /  0.76cm
02:08 55.9 °F /  13.3 °C 55.9 °F /  13.3 °C 30.07in /  1018.2hPa Calm     100% 0.03in /  0.76cm
02:13 55.9 °F /  13.3 °C 55.9 °F /  13.3 °C 30.07in /  1018.2hPa Calm     100% 0.04in /  1.02cm
02:18 55.9 °F /  13.3 °C 55.9 °F /  13.3 °C 30.07in /  1018.2hPa Calm     100% 0.04in /  1.02cm
02:23 55.9 °F /  13.3 °C 55.9 °F /  13.3 °C 30.06in /  1017.8hPa Calm     100% 0.04in /  1.02cm
02:28 55.9 °F /  13.3 °C 55.9 °F /  13.3 °C 30.06in /  1017.8hPa Calm     100% 0.05in /  1.27cm
02:33 56.1 °F /  13.4 °C 56.1 °F /  13.4 °C 30.06in /  1017.8hPa Calm     100% 0.05in /  1.27cm
02:38 56.1 °F /  13.4 °C 56.1 °F /  13.4 °C 30.05in /  1017.5hPa Calm     100% 0.05in /  1.27cm
02:43 55.9 °F /  13.3 °C 55.9 °F /  13.3 °C 30.06in /  1017.8hPa Calm     100% 0.05in /  1.27cm
02:48 56.1 °F /  13.4 °C 56.1 °F /  13.4 °C 30.06in /  1017.8hPa Calm     100% 0.05in /  1.27cm
02:53 55.9 °F /  13.3 °C 55.9 °F /  13.3 °C 30.06in /  1017.8hPa Calm     100% 0.05in /  1.27cm
02:58 55.8 °F /  13.2 °C 55.8 °F /  13.2 °C 30.05in /  1017.5hPa Calm     100% 0.05in /  1.27cm
03:03 55.9 °F /  13.3 °C 55.9 °F /  13.3 °C 30.05in /  1017.5hPa Calm     100% 0.05in /  1.27cm
03:08 55.8 °F /  13.2 °C 55.8 °F /  13.2 °C 30.05in /  1017.5hPa Calm     100% 0.06in /  1.52cm
03:13 55.8 °F /  13.2 °C 55.8 °F /  13.2 °C 30.05in /  1017.5hPa Calm     100% 0.05in /  1.27cm
03:18 55.8 °F /  13.2 °C 55.8 °F /  13.2 °C 30.05in /  1017.5hPa Calm     100% 0.04in /  1.02cm
03:23 55.8 °F /  13.2 °C 55.8 °F /  13.2 °C 30.05in /  1017.5hPa Calm     100% 0.05in /  1.27cm
03:28 55.8 °F /  13.2 °C 55.8 °F /  13.2 °C 30.05in /  1017.5hPa Calm     100% 0.04in /  1.02cm
03:41 55.4 °F /  13 °C 55.4 °F /  13 °C 30.04in /  1017.2hPa Calm     100% 0.04in /  1.02cm
03:46 55.4 °F /  13 °C 55.4 °F /  13 °C 30.05in /  1017.5hPa Calm     100% 0.03in /  0.76cm
03:51 55.4 °F /  13 °C 55.4 °F /  13 °C 30.05in /  1017.5hPa Calm     100% 0.03in /  0.76cm
03:56 55.4 °F /  13 °C 55.4 °F /  13 °C 30.05in /  1017.5hPa Calm     100% 0.03in /  0.76cm
04:01 55.4 °F /  13 °C 55.4 °F /  13 °C 30.04in /  1017.2hPa Calm     100% 0.02in /  0.51cm
04:06 55.4 °F /  13 °C 55.4 °F /  13 °C 30.04in /  1017.2hPa Calm     100% 0.02in /  0.51cm
04:11 55.4 °F /  13 °C 55.4 °F /  13 °C 30.03in /  1016.8hPa Calm     100% 0.02in /  0.51cm
04:16 55.4 °F /  13 °C 55.4 °F /  13 °C 30.03in /  1016.8hPa Calm     100% 0.02in /  0.51cm
04:21 55.4 °F /  13 °C 55.4 °F /  13 °C 30.03in /  1016.8hPa Calm     100% 0.01in /  0.25cm
04:26 55.4 °F /  13 °C 55.4 °F /  13 °C 30.03in /  1016.8hPa Calm     100% 0.01in /  0.25cm
04:31 55.4 °F /  13 °C 55.4 °F /  13 °C 30.03in /  1016.8hPa Calm     100% 0.01in /  0.25cm
04:36 55.4 °F /  13 °C 55.4 °F /  13 °C 30.03in /  1016.8hPa Calm     100% 0.00in /  0cm
04:41 55.4 °F /  13 °C 55.4 °F /  13 °C 30.03in /  1016.8hPa Calm     100% 0.00in /  0cm
04:46 55.6 °F /  13.1 °C 55.6 °F /  13.1 °C 30.03in /  1016.8hPa Calm     100% 0.01in /  0.25cm
04:51 55.4 °F /  13 °C 55.4 °F /  13 °C 30.02in /  1016.5hPa Calm     100% 0.01in /  0.25cm
04:56 55.4 °F /  13 °C 55.4 °F /  13 °C 30.02in /  1016.5hPa Calm     100% 0.01in /  0.25cm
05:01 55.4 °F /  13 °C 55.4 °F /  13 °C 30.02in /  1016.5hPa Calm     100% 0.01in /  0.25cm
05:06 55.4 °F /  13 °C 55.4 °F /  13 °C 30.02in /  1016.5hPa Calm     100% 0.01in /  0.25cm
05:11 55.4 °F /  13 °C 55.4 °F /  13 °C 30.01in /  1016.1hPa Calm     100% 0.01in /  0.25cm
05:16 55.4 °F /  13 °C 55.4 °F /  13 °C 30.02in /  1016.5hPa Calm     100% 0.02in /  0.51cm
05:21 55.4 °F /  13 °C 55.4 °F /  13 °C 30.01in /  1016.1hPa Calm     100% 0.02in /  0.51cm
05:26 55.4 °F /  13 °C 55.4 °F /  13 °C 30.01in /  1016.1hPa Calm     100% 0.02in /  0.51cm
05:31 55.4 °F /  13 °C 55.4 °F /  13 °C 30.02in /  1016.5hPa Calm     100% 0.02in /  0.51cm
05:36 55.4 °F /  13 °C 55.4 °F /  13 °C 30.01in /  1016.1hPa Calm     100% 0.02in /  0.51cm
05:41 55.2 °F /  12.9 °C 55.2 °F /  12.9 °C 30.01in /  1016.1hPa Calm     100% 0.02in /  0.51cm
05:46 55.2 °F /  12.9 °C 55.2 °F /  12.9 °C 30.01in /  1016.1hPa Calm     100% 0.02in /  0.51cm
05:51 55.2 °F /  12.9 °C 55.2 °F /  12.9 °C 30.02in /  1016.5hPa Calm     100% 0.02in /  0.51cm
05:56 55.2 °F /  12.9 °C 55.2 °F /  12.9 °C 30.02in /  1016.5hPa Calm     100% 0.03in /  0.76cm
06:01 55.2 °F /  12.9 °C 55.2 °F /  12.9 °C 30.02in /  1016.5hPa Calm     100% 0.03in /  0.76cm
06:06 55.2 °F /  12.9 °C 55.2 °F /  12.9 °C 30.02in /  1016.5hPa Calm     100% 0.04in /  1.02cm
06:11 55.2 °F /  12.9 °C 55.2 °F /  12.9 °C 30.02in /  1016.5hPa Calm     100% 0.04in /  1.02cm
06:16 55.2 °F /  12.9 °C 55.2 °F /  12.9 °C 30.02in /  1016.5hPa Calm     100% 0.04in /  1.02cm
06:21 55.2 °F /  12.9 °C 55.2 °F /  12.9 °C 30.02in /  1016.5hPa Calm     100% 0.04in /  1.02cm
06:26 55.2 °F /  12.9 °C 55.2 °F /  12.9 °C 30.02in /  1016.5hPa Calm     100% 0.05in /  1.27cm
06:31 55.2 °F /  12.9 °C 55.2 °F /  12.9 °C 30.02in /  1016.5hPa Calm     100% 0.05in /  1.27cm
06:36 55.2 °F /  12.9 °C 55.2 °F /  12.9 °C 30.02in /  1016.5hPa Calm     100% 0.04in /  1.02cm
06:41 55.2 °F /  12.9 °C 55.2 °F /  12.9 °C 30.02in /  1016.5hPa Calm     100% 0.04in /  1.02cm
06:46 55.2 °F /  12.9 °C 55.2 °F /  12.9 °C 30.02in /  1016.5hPa Calm     100% 0.04in /  1.02cm
06:51 55.2 °F /  12.9 °C 55.2 °F /  12.9 °C 30.02in /  1016.5hPa Calm     100% 0.04in /  1.02cm
06:56 55.2 °F /  12.9 °C 55.2 °F /  12.9 °C 30.02in /  1016.5hPa Calm     100% 0.04in /  1.02cm
07:01 55.2 °F /  12.9 °C 55.2 °F /  12.9 °C 30.02in /  1016.5hPa Calm     100% 0.04in /  1.02cm
07:06 55.4 °F /  13 °C 55.4 °F /  13 °C 30.02in /  1016.5hPa Calm     100% 0.03in /  0.76cm
07:11 55.4 °F /  13 °C 55.4 °F /  13 °C 30.02in /  1016.5hPa Calm     100% 0.03in /  0.76cm
07:16 55.4 °F /  13 °C 55.4 °F /  13 °C 30.02in /  1016.5hPa Calm     100% 0.03in /  0.76cm
07:21 55.4 °F /  13 °C 55.4 °F /  13 °C 30.02in /  1016.5hPa Calm     100% 0.03in /  0.76cm
07:26 55.4 °F /  13 °C 55.4 °F /  13 °C 30.01in /  1016.1hPa Calm     100% 0.02in /  0.51cm
07:31 55.6 °F /  13.1 °C 55.6 °F /  13.1 °C 30.01in /  1016.1hPa Calm     100% 0.02in /  0.51cm
07:36 55.6 °F /  13.1 °C 55.6 °F /  13.1 °C 30.01in /  1016.1hPa Calm     100% 0.03in /  0.76cm
07:42 55.4 °F /  13 °C 55.4 °F /  13 °C 30.00in /  1015.8hPa Calm     100% 0.03in /  0.76cm
07:47 55.6 °F /  13.1 °C 55.6 °F /  13.1 °C 30.00in /  1015.8hPa Calm     100% 0.02in /  0.51cm
07:52 55.6 °F /  13.1 °C 55.6 °F /  13.1 °C 30.00in /  1015.8hPa Calm     100% 0.02in /  0.51cm
07:57 55.8 °F /  13.2 °C 55.8 °F /  13.2 °C 30.00in /  1015.8hPa Calm     100% 0.02in /  0.51cm
08:02 55.8 °F /  13.2 °C 55.8 °F /  13.2 °C 30.00in /  1015.8hPa Calm     100% 0.02in /  0.51cm
08:07 55.8 °F /  13.2 °C 55.8 °F /  13.2 °C 30.00in /  1015.8hPa Calm     100% 0.02in /  0.51cm
08:12 55.8 °F /  13.2 °C 55.8 °F /  13.2 °C 30.00in /  1015.8hPa Calm     100% 0.02in /  0.51cm
08:17 55.8 °F /  13.2 °C 55.8 °F /  13.2 °C 30.00in /  1015.8hPa Calm     100% 0.02in /  0.51cm
08:22 55.9 °F /  13.3 °C 55.9 °F /  13.3 °C 30.01in /  1016.1hPa Calm     100% 0.02in /  0.51cm
08:27 55.9 °F /  13.3 °C 55.9 °F /  13.3 °C 30.00in /  1015.8hPa Calm     100% 0.02in /  0.51cm
08:32 55.9 °F /  13.3 °C 55.9 °F /  13.3 °C 30.00in /  1015.8hPa Calm     100% 0.02in /  0.51cm
08:37 55.9 °F /  13.3 °C 55.9 °F /  13.3 °C 30.00in /  1015.8hPa Calm     100% 0.02in /  0.51cm
08:42 55.9 °F /  13.3 °C 55.9 °F /  13.3 °C 30.00in /  1015.8hPa Calm     100% 0.02in /  0.51cm
08:47 56.1 °F /  13.4 °C 56.1 °F /  13.4 °C 30.00in /  1015.8hPa Calm     100% 0.03in /  0.76cm
08:52 56.1 °F /  13.4 °C 56.1 °F /  13.4 °C 30.00in /  1015.8hPa Calm     100% 0.03in /  0.76cm
08:57 56.1 °F /  13.4 °C 56.1 °F /  13.4 °C 30.00in /  1015.8hPa Calm     100% 0.04in /  1.02cm
09:02 56.1 °F /  13.4 °C 56.1 °F /  13.4 °C 30.00in /  1015.8hPa Calm     100% 0.04in /  1.02cm
09:07 56.1 °F /  13.4 °C 56.1 °F /  13.4 °C 30.00in /  1015.8hPa Calm     100% 0.04in /  1.02cm
09:12 56.1 °F /  13.4 °C 56.1 °F /  13.4 °C 30.00in /  1015.8hPa Calm     100% 0.04in /  1.02cm
09:17 56.1 °F /  13.4 °C 56.1 °F /  13.4 °C 30.00in /  1015.8hPa Calm     100% 0.04in /  1.02cm
09:22 56.1 °F /  13.4 °C 56.1 °F /  13.4 °C 30.00in /  1015.8hPa Calm     100% 0.04in /  1.02cm
09:27 56.1 °F /  13.4 °C 56.1 °F /  13.4 °C 30.00in /  1015.8hPa Calm     100% 0.04in /  1.02cm
09:32 56.1 °F /  13.4 °C 56.1 °F /  13.4 °C 30.00in /  1015.8hPa Calm     100% 0.04in /  1.02cm
09:37 56.1 °F /  13.4 °C 56.1 °F /  13.4 °C 30.00in /  1015.8hPa Calm     100% 0.04in /  1.02cm
09:42 56.1 °F /  13.4 °C 56.1 °F /  13.4 °C 30.00in /  1015.8hPa Calm     100% 0.04in /  1.02cm
09:47 56.3 °F /  13.5 °C 56.3 °F /  13.5 °C 30.00in /  1015.8hPa Calm     100% 0.03in /  0.76cm
09:52 56.3 °F /  13.5 °C 56.3 °F /  13.5 °C 30.00in /  1015.8hPa WNW 1.2mph /  1.9km/h 1.2mph /  1.9km/h 100% 0.03in /  0.76cm
09:57 56.3 °F /  13.5 °C 56.3 °F /  13.5 °C 30.00in /  1015.8hPa Calm     100% 0.03in /  0.76cm
10:02 56.3 °F /  13.5 °C 56.3 °F /  13.5 °C 30.00in /  1015.8hPa Calm     100% 0.02in /  0.51cm
10:07 56.3 °F /  13.5 °C 56.3 °F /  13.5 °C 30.00in /  1015.8hPa NE 1.2mph /  1.9km/h 1.2mph /  1.9km/h 100% 0.02in /  0.51cm
10:12 56.5 °F /  13.6 °C 56.5 °F /  13.6 °C 30.00in /  1015.8hPa Calm     100% 0.02in /  0.51cm
10:17 56.7 °F /  13.7 °C 56.7 °F /  13.7 °C 30.00in /  1015.8hPa Calm     100% 0.02in /  0.51cm
10:22 56.7 °F /  13.7 °C 56.7 °F /  13.7 °C 30.00in /  1015.8hPa Calm     100% 0.01in /  0.25cm
10:27 56.7 °F /  13.7 °C 56.7 °F /  13.7 °C 30.00in /  1015.8hPa Calm     100% 0.01in /  0.25cm
10:32 56.8 °F /  13.8 °C 56.8 °F /  13.8 °C 30.00in /  1015.8hPa NW 1.4mph /  2.3km/h 1.4mph /  2.3km/h 100% 0.02in /  0.51cm
10:37 57.0 °F /  13.9 °C 57.0 °F /  13.9 °C 30.00in /  1015.8hPa Calm     100% 0.01in /  0.25cm
10:42 57.0 °F /  13.9 °C 57.0 °F /  13.9 °C 30.00in /  1015.8hPa NNW 2.3mph /  3.7km/h   100% 0.02in /  0.51cm
10:47 57.0 °F /  13.9 °C 57.0 °F /  13.9 °C 30.00in /  1015.8hPa Calm     100% 0.02in /  0.51cm
10:52 57.2 °F /  14 °C 57.2 °F /  14 °C 30.00in /  1015.8hPa Calm     100% 0.02in /  0.51cm
10:57 57.6 °F /  14.2 °C 57.6 °F /  14.2 °C 30.00in /  1015.8hPa Calm     100% 0.02in /  0.51cm
11:02 57.7 °F /  14.3 °C 57.7 °F /  14.3 °C 30.00in /  1015.8hPa Calm     100% 0.02in /  0.51cm
11:07 57.9 °F /  14.4 °C 57.9 °F /  14.4 °C 30.00in /  1015.8hPa East 3.5mph /  5.6km/h 3.5mph /  5.6km/h 100% 0.02in /  0.51cm
11:12 57.7 °F /  14.3 °C 57.7 °F /  14.3 °C 30.00in /  1015.8hPa NE 3.5mph /  5.6km/h 3.5mph /  5.6km/h 100% 0.02in /  0.51cm
11:17 57.4 °F /  14.1 °C 57.4 °F /  14.1 °C 30.00in /  1015.8hPa NE 1.2mph /  1.9km/h 1.2mph /  1.9km/h 100% 0.02in /  0.51cm
11:22 57.2 °F /  14 °C 57.2 °F /  14 °C 30.00in /  1015.8hPa East 0.6mph /  1km/h   100% 0.02in /  0.51cm
11:27 57.4 °F /  14.1 °C 57.4 °F /  14.1 °C 30.00in /  1015.8hPa Calm     100% 0.02in /  0.51cm
11:32 57.2 °F /  14 °C 57.2 °F /  14 °C 30.00in /  1015.8hPa ENE 1.5mph /  2.4km/h 1.5mph /  2.4km/h 100% 0.02in /  0.51cm
11:37 57.2 °F /  14 °C 57.2 °F /  14 °C 30.00in /  1015.8hPa Calm     100% 0.02in /  0.51cm
11:42 57.4 °F /  14.1 °C 57.4 °F /  14.1 °C 30.00in /  1015.8hPa NW 0.6mph /  1km/h   100% 0.01in /  0.25cm
11:47 57.6 °F /  14.2 °C 57.6 °F /  14.2 °C 30.00in /  1015.8hPa NW 5.0mph /  8km/h 5.0mph /  8km/h 100% 0.01in /  0.25cm
11:52 57.9 °F /  14.4 °C 57.9 °F /  14.4 °C 30.00in /  1015.8hPa Calm     100% 0.01in /  0.25cm
11:57 57.9 °F /  14.4 °C 57.9 °F /  14.4 °C 30.00in /  1015.8hPa NW 1.2mph /  1.9km/h 1.2mph /  1.9km/h 100% 0.01in /  0.25cm
12:02 58.1 °F /  14.5 °C 58.1 °F /  14.5 °C 30.00in /  1015.8hPa Calm     100% 0.01in /  0.25cm
12:07 58.3 °F /  14.6 °C 58.3 °F /  14.6 °C 30.00in /  1015.8hPa ENE 1.2mph /  1.9km/h 1.2mph /  1.9km/h 100% 0.01in /  0.25cm
12:12 57.9 °F /  14.4 °C 57.9 °F /  14.4 °C 30.00in /  1015.8hPa NNW 4.6mph /  7.4km/h 4.6mph /  7.4km/h 100% 0.01in /  0.25cm
12:17 57.9 °F /  14.4 °C 57.9 °F /  14.4 °C 30.00in /  1015.8hPa NE 3.5mph /  5.6km/h 3.5mph /  5.6km/h 100% 0.00in /  0cm
12:22 57.7 °F /  14.3 °C 57.7 °F /  14.3 °C 30.00in /  1015.8hPa Calm     100% 0.00in /  0cm
12:27 57.6 °F /  14.2 °C 57.6 °F /  14.2 °C 30.00in /  1015.8hPa NNE 4.6mph /  7.4km/h 4.6mph /  7.4km/h 100% 0.00in /  0cm
12:32 57.9 °F /  14.4 °C 57.9 °F /  14.4 °C 30.01in /  1016.1hPa Calm     100% 0.00in /  0cm
12:37 58.3 °F /  14.6 °C 58.3 °F /  14.6 °C 30.01in /  1016.1hPa Calm     100% 0.00in /  0cm
12:42 58.5 °F /  14.7 °C 58.5 °F /  14.7 °C 30.01in /  1016.1hPa NNE 1.8mph /  2.9km/h 1.8mph /  2.9km/h 100% 0.00in /  0cm
12:47 58.8 °F /  14.9 °C 58.8 °F /  14.9 °C 30.02in /  1016.5hPa NNE 3.6mph /  5.8km/h 3.6mph /  5.8km/h 100% 0.00in /  0cm
12:52 58.6 °F /  14.8 °C 58.6 °F /  14.8 °C 30.01in /  1016.1hPa NW 1.2mph /  1.9km/h 1.2mph /  1.9km/h 100% 0.00in /  0cm
12:57 59.0 °F /  15 °C 59.0 °F /  15 °C 30.01in /  1016.1hPa Calm     100% 0.00in /  0cm
13:02 59.0 °F /  15 °C 59.0 °F /  15 °C 30.02in /  1016.5hPa NNW 0.4mph /  0.6km/h   100% 0.00in /  0cm
13:07 59.0 °F /  15 °C 59.0 °F /  15 °C 30.02in /  1016.5hPa Calm     100% 0.00in /  0cm
13:12 59.0 °F /  15 °C 59.0 °F /  15 °C 30.02in /  1016.5hPa SW 0.6mph /  1km/h   100% 0.00in /  0cm
13:17 59.4 °F /  15.2 °C 59.4 °F /  15.2 °C 30.02in /  1016.5hPa East 0.6mph /  1km/h   100% 0.00in /  0cm
13:22 59.0 °F /  15 °C 59.0 °F /  15 °C 30.02in /  1016.5hPa Calm     100% 0.00in /  0cm
13:27 58.8 °F /  14.9 °C 58.8 °F /  14.9 °C 30.02in /  1016.5hPa Calm     100% 0.01in /  0.25cm
13:32 58.8 °F /  14.9 °C 58.8 °F /  14.9 °C 30.01in /  1016.1hPa Calm     100% 0.01in /  0.25cm
13:37 58.6 °F /  14.8 °C 58.6 °F /  14.8 °C 30.02in /  1016.5hPa Calm     100% 0.01in /  0.25cm
13:42 58.5 °F /  14.7 °C 58.5 °F /  14.7 °C 30.02in /  1016.5hPa Calm     100% 0.02in /  0.51cm
13:47 58.8 °F /  14.9 °C 58.8 °F /  14.9 °C 30.02in /  1016.5hPa Calm     100% 0.02in /  0.51cm
13:52 59.2 °F /  15.1 °C 59.2 °F /  15.1 °C 30.02in /  1016.5hPa SSW 0.6mph /  1km/h   100% 0.02in /  0.51cm
13:57 59.0 °F /  15 °C 59.0 °F /  15 °C 30.02in /  1016.5hPa Calm     100% 0.02in /  0.51cm
14:02 59.5 °F /  15.3 °C 59.5 °F /  15.3 °C 30.02in /  1016.5hPa Calm     100% 0.02in /  0.51cm
14:07 59.9 °F /  15.5 °C 59.9 °F /  15.5 °C 30.02in /  1016.5hPa Calm     100% 0.02in /  0.51cm
14:12 59.7 °F /  15.4 °C 59.7 °F /  15.4 °C 30.02in /  1016.5hPa Calm     100% 0.02in /  0.51cm
14:17 59.5 °F /  15.3 °C 59.5 °F /  15.3 °C 30.02in /  1016.5hPa Calm     100% 0.02in /  0.51cm
14:22 59.0 °F /  15 °C 59.0 °F /  15 °C 30.02in /  1016.5hPa Calm     100% 0.02in /  0.51cm
14:27 58.8 °F /  14.9 °C 58.8 °F /  14.9 °C 30.02in /  1016.5hPa SSE 0.8mph /  1.3km/h 0.8mph /  1.3km/h 100% 0.01in /  0.25cm
14:32 58.5 °F /  14.7 °C 58.5 °F /  14.7 °C 30.02in /  1016.5hPa Calm     100% 0.01in /  0.25cm
14:37 59.0 °F /  15 °C 59.0 °F /  15 °C 30.02in /  1016.5hPa Calm     100% 0.01in /  0.25cm
14:42 59.4 °F /  15.2 °C 59.4 °F /  15.2 °C 30.02in /  1016.5hPa WSW 2.5mph /  4km/h 2.5mph /  4km/h 100% 0.00in /  0cm
14:47 59.9 °F /  15.5 °C 59.9 °F /  15.5 °C 30.02in /  1016.5hPa Calm     100% 0.00in /  0cm
14:52 59.7 °F /  15.4 °C 59.7 °F /  15.4 °C 30.02in /  1016.5hPa Calm     100% 0.00in /  0cm
14:57 59.9 °F /  15.5 °C 59.9 °F /  15.5 °C 30.01in /  1016.1hPa SE 1.2mph /  1.9km/h 1.2mph /  1.9km/h 100% 0.00in /  0cm
15:02 59.9 °F /  15.5 °C 59.9 °F /  15.5 °C 30.01in /  1016.1hPa Calm     100% 0.01in /  0.25cm
15:07 59.7 °F /  15.4 °C 59.7 °F /  15.4 °C 30.01in /  1016.1hPa Calm     100% 0.02in /  0.51cm
15:12 59.4 °F /  15.2 °C 59.4 °F /  15.2 °C 30.01in /  1016.1hPa Calm     100% 0.02in /  0.51cm
15:17 59.0 °F /  15 °C 59.0 °F /  15 °C 30.01in /  1016.1hPa Calm     100% 0.02in /  0.51cm
15:22 59.2 °F /  15.1 °C 59.2 °F /  15.1 °C 30.00in /  1015.8hPa Calm     100% 0.02in /  0.51cm
15:27 59.4 °F /  15.2 °C 59.4 °F /  15.2 °C 30.00in /  1015.8hPa Calm     100% 0.02in /  0.51cm
15:32 59.4 °F /  15.2 °C 59.4 °F /  15.2 °C 30.00in /  1015.8hPa NNW 2.3mph /  3.7km/h 2.3mph /  3.7km/h 100% 0.02in /  0.51cm
15:37 59.0 °F /  15 °C 59.0 °F /  15 °C 30.01in /  1016.1hPa Calm     100% 0.02in /  0.51cm
15:42 59.2 °F /  15.1 °C 59.2 °F /  15.1 °C 30.00in /  1015.8hPa Calm     100% 0.02in /  0.51cm
15:47 59.0 °F /  15 °C 59.0 °F /  15 °C 30.01in /  1016.1hPa NE 3.5mph /  5.6km/h 3.5mph /  5.6km/h 100% 0.02in /  0.51cm
15:52 58.5 °F /  14.7 °C 58.5 °F /  14.7 °C 30.01in /  1016.1hPa NW 2.3mph /  3.7km/h   100% 0.02in /  0.51cm
15:57 58.3 °F /  14.6 °C 58.3 °F /  14.6 °C 30.01in /  1016.1hPa Calm     100% 0.02in /  0.51cm
16:02 58.5 °F /  14.7 °C 58.5 °F /  14.7 °C 30.01in /  1016.1hPa NE 1.2mph /  1.9km/h 1.2mph /  1.9km/h 100% 0.02in /  0.51cm
16:07 58.5 °F /  14.7 °C 58.5 °F /  14.7 °C 30.00in /  1015.8hPa Calm     100% 0.01in /  0.25cm
16:12 58.5 °F /  14.7 °C 58.5 °F /  14.7 °C 30.01in /  1016.1hPa Calm     100% 0.00in /  0cm
16:17 58.6 °F /  14.8 °C 58.6 °F /  14.8 °C 30.01in /  1016.1hPa Calm     100% 0.00in /  0cm
16:22 58.8 °F /  14.9 °C 58.8 °F /  14.9 °C 30.01in /  1016.1hPa Calm     100% 0.00in /  0cm
16:27 59.2 °F /  15.1 °C 59.2 °F /  15.1 °C 30.01in /  1016.1hPa Calm     100% 0.00in /  0cm
16:32 59.0 °F /  15 °C 59.0 °F /  15 °C 30.01in /  1016.1hPa Calm     100% 0.00in /  0cm
16:37 59.0 °F /  15 °C 59.0 °F /  15 °C 30.00in /  1015.8hPa Calm     100% 0.00in /  0cm
16:42 58.8 °F /  14.9 °C 58.8 °F /  14.9 °C 30.01in /  1016.1hPa Calm     100% 0.00in /  0cm
16:47 58.5 °F /  14.7 °C 58.5 °F /  14.7 °C 30.01in /  1016.1hPa Calm     100% 0.01in /  0.25cm
16:55 58.1 °F /  14.5 °C 58.1 °F /  14.5 °C 30.01in /  1016.1hPa SSW 1.2mph /  1.9km/h 1.2mph /  1.9km/h 100% 0.09in /  2.29cm
17:00 58.1 °F /  14.5 °C 58.1 °F /  14.5 °C 30.02in /  1016.5hPa SSE 1.1mph /  1.8km/h 1.1mph /  1.8km/h 100% 0.13in /  3.3cm
17:05 58.3 °F /  14.6 °C 58.3 °F /  14.6 °C 30.01in /  1016.1hPa Calm     100% 0.14in /  3.56cm
17:11 58.1 °F /  14.5 °C 58.1 °F /  14.5 °C 30.02in /  1016.5hPa Calm     100% 0.15in /  3.81cm
17:16 58.1 °F /  14.5 °C 58.1 °F /  14.5 °C 30.01in /  1016.1hPa Calm     100% 0.15in /  3.81cm
17:22 58.1 °F /  14.5 °C 58.1 °F /  14.5 °C 30.01in /  1016.1hPa WSW 3.5mph /  5.6km/h 3.5mph /  5.6km/h 100% 0.15in /  3.81cm
17:27 57.9 °F /  14.4 °C 57.9 °F /  14.4 °C 30.01in /  1016.1hPa SW 1.2mph /  1.9km/h 1.2mph /  1.9km/h 100% 0.15in /  3.81cm
17:35 57.9 °F /  14.4 °C 57.9 °F /  14.4 °C 30.01in /  1016.1hPa South 3.2mph /  5.1km/h   100% 0.15in /  3.81cm
17:40 57.9 °F /  14.4 °C 57.9 °F /  14.4 °C 30.01in /  1016.1hPa Calm     100% 0.15in /  3.81cm
17:45 57.9 °F /  14.4 °C 57.9 °F /  14.4 °C 30.02in /  1016.5hPa Calm     100% 0.15in /  3.81cm
17:50 57.9 °F /  14.4 °C 57.9 °F /  14.4 °C 30.02in /  1016.5hPa South 1.2mph /  1.9km/h   100% 0.16in /  4.06cm
17:55 57.7 °F /  14.3 °C 57.7 °F /  14.3 °C 30.02in /  1016.5hPa Calm     100% 0.16in /  4.06cm
18:00 57.6 °F /  14.2 °C 57.6 °F /  14.2 °C 30.02in /  1016.5hPa Calm     100% 0.15in /  3.81cm
18:05 57.6 °F /  14.2 °C 57.6 °F /  14.2 °C 30.02in /  1016.5hPa Calm     100% 0.02in /  0.51cm
18:10 57.6 °F /  14.2 °C 57.6 °F /  14.2 °C 30.02in /  1016.5hPa Calm     100% 0.02in /  0.51cm
18:15 57.6 °F /  14.2 °C 57.6 °F /  14.2 °C 30.02in /  1016.5hPa Calm     100% 0.01in /  0.25cm
18:21 57.6 °F /  14.2 °C 57.6 °F /  14.2 °C 30.02in /  1016.5hPa ENE 3.5mph /  5.6km/h 3.5mph /  5.6km/h 100% 0.01in /  0.25cm
18:26 57.4 °F /  14.1 °C 57.4 °F /  14.1 °C 30.02in /  1016.5hPa South 4.6mph /  7.4km/h   100% 0.01in /  0.25cm
18:31 57.4 °F /  14.1 °C 57.4 °F /  14.1 °C 30.03in /  1016.8hPa Calm     100% 0.01in /  0.25cm
18:36 57.2 °F /  14 °C 57.2 °F /  14 °C 30.03in /  1016.8hPa WSW 0.7mph /  1.1km/h 0.7mph /  1.1km/h 100% 0.01in /  0.25cm
18:41 57.2 °F /  14 °C 57.2 °F /  14 °C 30.02in /  1016.5hPa SW 3.9mph /  6.3km/h 3.9mph /  6.3km/h 100% 0.02in /  0.51cm
18:46 56.8 °F /  13.8 °C 56.8 °F /  13.8 °C 30.03in /  1016.8hPa WSW 1.2mph /  1.9km/h 1.2mph /  1.9km/h 100% 0.03in /  0.76cm
18:51 56.7 °F /  13.7 °C 56.7 °F /  13.7 °C 30.03in /  1016.8hPa WSW 1.2mph /  1.9km/h   100% 0.03in /  0.76cm
18:56 56.7 °F /  13.7 °C 56.7 °F /  13.7 °C 30.02in /  1016.5hPa South 1.1mph /  1.8km/h 1.1mph /  1.8km/h 100% 0.03in /  0.76cm
19:06 56.5 °F /  13.6 °C 56.5 °F /  13.6 °C 30.03in /  1016.8hPa SSW 2.3mph /  3.7km/h 2.3mph /  3.7km/h 100% 0.03in /  0.76cm
19:11 56.3 °F /  13.5 °C 56.3 °F /  13.5 °C 30.02in /  1016.5hPa Calm     100% 0.04in /  1.02cm
19:16 56.3 °F /  13.5 °C 56.3 °F /  13.5 °C 30.03in /  1016.8hPa South 2.3mph /  3.7km/h 2.3mph /  3.7km/h 100% 0.04in /  1.02cm
19:22 56.3 °F /  13.5 °C 56.3 °F /  13.5 °C 30.03in /  1016.8hPa Calm     100% 0.05in /  1.27cm
19:27 56.3 °F /  13.5 °C 56.3 °F /  13.5 °C 30.03in /  1016.8hPa Calm     100% 0.06in /  1.52cm
19:32 56.3 °F /  13.5 °C 56.3 °F /  13.5 °C 30.03in /  1016.8hPa Calm     100% 0.07in /  1.78cm
19:43 56.1 °F /  13.4 °C 56.1 °F /  13.4 °C 30.03in /  1016.8hPa Calm     100% 0.07in /  1.78cm
19:48 56.1 °F /  13.4 °C 56.1 °F /  13.4 °C 30.03in /  1016.8hPa Calm     100% 0.07in /  1.78cm
19:53 55.9 °F /  13.3 °C 55.9 °F /  13.3 °C 30.03in /  1016.8hPa Calm     100% 0.08in /  2.03cm
19:58 55.9 °F /  13.3 °C 55.9 °F /  13.3 °C 30.03in /  1016.8hPa Calm     100% 0.09in /  2.29cm
20:03 55.8 °F /  13.2 °C 55.8 °F /  13.2 °C 30.03in /  1016.8hPa Calm     100% 0.09in /  2.29cm
20:13 55.8 °F /  13.2 °C 55.8 °F /  13.2 °C 30.03in /  1016.8hPa Calm     100% 0.09in /  2.29cm
20:18 55.8 °F /  13.2 °C 55.8 °F /  13.2 °C 30.03in /  1016.8hPa Calm     100% 0.08in /  2.03cm
20:23 55.8 °F /  13.2 °C 55.8 °F /  13.2 °C 30.03in /  1016.8hPa Calm     100% 0.08in /  2.03cm
20:28 55.6 °F /  13.1 °C 55.6 °F /  13.1 °C 30.03in /  1016.8hPa Calm     100% 0.07in /  1.78cm
20:33 55.4 °F /  13 °C 55.4 °F /  13 °C 30.03in /  1016.8hPa Calm     100% 0.06in /  1.52cm
20:38 55.4 °F /  13 °C 55.4 °F /  13 °C 30.03in /  1016.8hPa Calm     100% 0.05in /  1.27cm
20:43 55.4 °F /  13 °C 55.4 °F /  13 °C 30.03in /  1016.8hPa Calm     100% 0.04in /  1.02cm
20:49 55.4 °F /  13 °C 55.4 °F /  13 °C 30.03in /  1016.8hPa Calm     100% 0.03in /  0.76cm
20:54 55.4 °F /  13 °C 55.4 °F /  13 °C 30.03in /  1016.8hPa Calm     100% 0.02in /  0.51cm
20:59 55.4 °F /  13 °C 55.4 °F /  13 °C 30.04in /  1017.2hPa Calm     100% 0.02in /  0.51cm
21:04 55.4 °F /  13 °C 55.4 °F /  13 °C 30.04in /  1017.2hPa Calm     100% 0.01in /  0.25cm
21:09 55.4 °F /  13 °C 55.4 °F /  13 °C 30.04in /  1017.2hPa Calm     100% 0.01in /  0.25cm
21:14 55.4 °F /  13 °C 55.4 °F /  13 °C 30.05in /  1017.5hPa Calm     100% 0.01in /  0.25cm
21:19 55.4 °F /  13 °C 55.4 °F /  13 °C 30.05in /  1017.5hPa Calm     100% 0.00in /  0cm
21:24 55.4 °F /  13 °C 55.4 °F /  13 °C 30.05in /  1017.5hPa Calm     100% 0.00in /  0cm
21:29 55.4 °F /  13 °C 55.4 °F /  13 °C 30.05in /  1017.5hPa Calm     100% 0.00in /  0cm
21:34 55.4 °F /  13 °C 55.4 °F /  13 °C 30.05in /  1017.5hPa Calm     100% 0.00in /  0cm
21:39 55.4 °F /  13 °C 55.4 °F /  13 °C 30.05in /  1017.5hPa Calm     100% 0.00in /  0cm
21:44 55.4 °F /  13 °C 55.4 °F /  13 °C 30.05in /  1017.5hPa Calm     100% 0.00in /  0cm
21:49 55.2 °F /  12.9 °C 55.2 °F /  12.9 °C 30.05in /  1017.5hPa Calm     100% 0.00in /  0cm
21:54 55.4 °F /  13 °C 55.4 °F /  13 °C 30.05in /  1017.5hPa Calm     100% 0.00in /  0cm
21:59 55.4 °F /  13 °C 55.4 °F /  13 °C 30.05in /  1017.5hPa Calm     100% 0.00in /  0cm
22:04 55.4 °F /  13 °C 55.4 °F /  13 °C 30.05in /  1017.5hPa Calm     100% 0.00in /  0cm
22:09 55.2 °F /  12.9 °C 55.2 °F /  12.9 °C 30.05in /  1017.5hPa Calm     100% 0.00in /  0cm
22:14 55.2 °F /  12.9 °C 55.2 °F /  12.9 °C 30.05in /  1017.5hPa Calm     100% 0.00in /  0cm
22:19 55.2 °F /  12.9 °C 55.2 °F /  12.9 °C 30.05in /  1017.5hPa Calm     100% 0.00in /  0cm
22:24 55.0 °F /  12.8 °C 55.0 °F /  12.8 °C 30.05in /  1017.5hPa Calm     100% 0.00in /  0cm
22:29 55.0 °F /  12.8 °C 55.0 °F /  12.8 °C 30.05in /  1017.5hPa Calm     100% 0.00in /  0cm
22:34 55.2 °F /  12.9 °C 55.2 °F /  12.9 °C 30.05in /  1017.5hPa Calm     100% 0.00in /  0cm
22:39 55.4 °F /  13 °C 55.4 °F /  13 °C 30.05in /  1017.5hPa Calm     100% 0.00in /  0cm
22:44 55.4 °F /  13 °C 55.4 °F /  13 °C 30.05in /  1017.5hPa Calm     100% 0.00in /  0cm
Wether-Above
Compliments of Weather Underground
Welcome to Weather-Above
Cheddleton weather station supplies various organisations with data from our weather station one of them is the weather Underground this information displayed here is coming from the weather Underground server 

If any information is used please acknowledge the source to www weather-above.com or weather Underground